createdAt,value
2018-07-26T00:01:37.251Z,24.20
2018-07-26T00:04:05.516Z,24.40
2018-07-26T00:06:33.790Z,24.20
2018-07-26T00:09:02.018Z,23.70
2018-07-26T00:11:30.251Z,23.50
2018-07-26T00:13:58.527Z,23.40
2018-07-26T00:16:26.752Z,23.40
2018-07-26T00:18:55.015Z,23.50
2018-07-26T00:21:23.269Z,23.30
2018-07-26T00:23:51.557Z,23.30
2018-07-26T00:26:19.811Z,23.30
2018-07-26T00:31:16.092Z,23.00
2018-07-26T00:33:44.332Z,22.90
2018-07-26T00:36:12.539Z,22.90
2018-07-26T00:38:40.782Z,22.80
2018-07-26T00:41:09.079Z,23.00
2018-07-26T00:43:37.321Z,23.10
2018-07-26T00:46:05.637Z,23.40
2018-07-26T00:48:33.859Z,23.50
2018-07-26T00:51:02.107Z,23.50
2018-07-26T00:53:30.381Z,23.40
2018-07-26T00:55:58.571Z,23.20
2018-07-26T00:58:26.838Z,23.40
2018-07-26T01:00:55.104Z,23.30
2018-07-26T01:03:23.352Z,23.00
2018-07-26T01:05:51.616Z,23.10
2018-07-26T01:08:19.843Z,23.00
2018-07-26T01:10:48.081Z,23.20
2018-07-26T01:13:16.320Z,23.40
2018-07-26T01:15:44.547Z,23.40
2018-07-26T01:18:12.779Z,22.90
2018-07-26T01:20:41.037Z,22.60
2018-07-26T01:23:09.481Z,22.60
2018-07-26T01:25:37.708Z,22.80
2018-07-26T01:28:05.986Z,22.60
2018-07-26T01:30:34.239Z,22.50
2018-07-26T01:33:02.540Z,22.70
2018-07-26T01:35:30.802Z,22.70
2018-07-26T01:37:59.070Z,22.80
2018-07-26T01:40:27.305Z,22.90
2018-07-26T01:43:06.920Z,22.90
2018-07-26T01:45:35.155Z,22.90
2018-07-26T01:48:03.353Z,23.00
2018-07-26T01:50:31.596Z,22.90
2018-07-26T01:52:59.838Z,22.60
2018-07-26T01:55:28.059Z,22.80
2018-07-26T01:57:56.277Z,22.80
2018-07-26T02:00:24.503Z,22.60
2018-07-26T02:02:52.729Z,22.60
2018-07-26T02:05:20.972Z,22.60
2018-07-26T02:07:49.167Z,22.10
2018-07-26T02:10:17.423Z,21.80
2018-07-26T02:12:45.630Z,21.80
2018-07-26T02:15:13.888Z,21.60
2018-07-26T02:17:42.176Z,21.50
2018-07-26T02:20:10.397Z,21.60
2018-07-26T02:22:38.638Z,21.90
2018-07-26T02:25:06.888Z,21.70
2018-07-26T02:27:35.151Z,21.40
2018-07-26T02:30:03.375Z,21.30
2018-07-26T02:32:31.644Z,21.70
2018-07-26T02:34:59.887Z,21.70
2018-07-26T02:37:28.117Z,21.50
2018-07-26T02:39:56.375Z,21.50
2018-07-26T02:42:24.591Z,21.70
2018-07-26T02:44:52.826Z,21.90
2018-07-26T02:47:21.039Z,21.80
2018-07-26T02:49:49.260Z,21.90
2018-07-26T02:52:17.507Z,21.80
2018-07-26T02:54:45.765Z,21.50
2018-07-26T02:57:14.009Z,21.50
2018-07-26T02:59:42.238Z,21.80
2018-07-26T03:02:10.784Z,21.90
2018-07-26T03:04:39.024Z,21.70
2018-07-26T03:07:07.301Z,21.50
2018-07-26T03:09:35.514Z,21.70
2018-07-26T03:12:03.793Z,21.60
2018-07-26T03:14:36.246Z,21.70
2018-07-26T03:17:04.527Z,21.80
2018-07-26T03:19:32.794Z,21.80
2018-07-26T03:22:01.016Z,21.70
2018-07-26T03:24:29.251Z,21.80
2018-07-26T03:26:57.511Z,21.90
2018-07-26T03:29:25.748Z,21.80
2018-07-26T03:31:53.975Z,21.20
2018-07-26T03:34:22.194Z,21.40
2018-07-26T03:36:50.412Z,21.50
2018-07-26T03:39:18.637Z,21.30
2018-07-26T03:41:47.243Z,21.10
2018-07-26T03:44:15.734Z,21.20
2018-07-26T03:46:44.133Z,20.90
2018-07-26T03:49:12.574Z,20.80
2018-07-26T03:51:40.825Z,20.90
2018-07-26T03:54:09.070Z,21.10
2018-07-26T03:56:37.306Z,21.00
2018-07-26T03:59:05.782Z,20.40
2018-07-26T04:01:33.999Z,20.70
2018-07-26T04:04:02.239Z,21.00
2018-07-26T04:06:30.463Z,21.10
2018-07-26T04:08:58.692Z,21.20
2018-07-26T04:11:26.919Z,21.30
2018-07-26T04:13:55.159Z,21.40
2018-07-26T04:16:23.356Z,21.40
2018-07-26T04:18:51.594Z,21.30
2018-07-26T04:21:19.815Z,21.20
2018-07-26T04:23:48.046Z,21.20
2018-07-26T04:26:16.287Z,21.20
2018-07-26T04:28:44.545Z,21.30
2018-07-26T04:31:12.782Z,21.30
2018-07-26T04:33:41.023Z,21.10
2018-07-26T04:36:09.280Z,21.10
2018-07-26T04:38:37.548Z,21.00
2018-07-26T04:41:05.755Z,21.20
2018-07-26T04:43:34.047Z,21.30
2018-07-26T04:46:02.627Z,21.30
2018-07-26T04:48:30.846Z,21.30
2018-07-26T04:50:59.076Z,21.40
2018-07-26T04:53:27.298Z,21.40
2018-07-26T04:55:55.605Z,21.40
2018-07-26T04:58:23.877Z,21.30
2018-07-26T05:00:52.211Z,21.30
2018-07-26T05:03:20.429Z,21.30
2018-07-26T05:05:48.650Z,21.30
2018-07-26T05:08:16.896Z,21.30
2018-07-26T05:10:45.184Z,21.20
2018-07-26T05:13:13.529Z,21.20
2018-07-26T05:15:41.754Z,21.30
2018-07-26T05:18:10.405Z,21.40
2018-07-26T05:20:38.629Z,21.50
2018-07-26T05:23:07.129Z,21.60
2018-07-26T05:25:35.358Z,21.60
2018-07-26T05:28:03.591Z,21.50
2018-07-26T05:30:31.810Z,21.50
2018-07-26T05:33:00.043Z,21.50
2018-07-26T05:35:28.262Z,21.60
2018-07-26T05:37:56.634Z,21.50
2018-07-26T05:40:24.876Z,21.60
2018-07-26T05:42:53.117Z,21.70
2018-07-26T05:45:21.362Z,21.80
2018-07-26T05:47:49.599Z,21.70
2018-07-26T05:50:17.847Z,21.70
2018-07-26T05:52:46.101Z,21.80
2018-07-26T05:55:14.346Z,21.80
2018-07-26T05:57:42.613Z,22.00
2018-07-26T06:00:12.760Z,22.20
2018-07-26T06:02:41.194Z,22.20
2018-07-26T06:05:09.794Z,22.10
2018-07-26T06:07:38.073Z,22.20
2018-07-26T06:10:07.187Z,22.20
2018-07-26T06:12:35.407Z,22.30
2018-07-26T06:15:04.457Z,22.30
2018-07-26T06:17:32.674Z,22.40
2018-07-26T06:20:00.895Z,22.40
2018-07-26T06:22:29.117Z,22.40
2018-07-26T06:24:57.379Z,22.40
2018-07-26T06:27:25.726Z,22.50
2018-07-26T06:29:53.951Z,22.50
2018-07-26T06:32:22.220Z,22.50
2018-07-26T06:34:50.430Z,22.50
2018-07-26T06:37:18.622Z,22.60
2018-07-26T06:39:46.862Z,22.60
2018-07-26T06:42:15.098Z,22.60
2018-07-26T06:44:43.321Z,22.60
2018-07-26T06:47:12.041Z,22.80
2018-07-26T06:49:40.218Z,22.80
2018-07-26T06:52:08.474Z,23.00
2018-07-26T06:54:36.688Z,23.10
2018-07-26T06:57:04.966Z,23.10
2018-07-26T06:59:33.188Z,23.10
2018-07-26T07:02:01.415Z,23.30
2018-07-26T07:04:29.650Z,23.30
2018-07-26T07:09:25.843Z,23.30
2018-07-26T07:11:54.073Z,23.30
2018-07-26T07:14:22.304Z,23.40
2018-07-26T07:16:50.554Z,23.50
2018-07-26T07:19:18.784Z,23.60
2018-07-26T07:21:47.001Z,23.70
2018-07-26T07:24:20.160Z,23.70
2018-07-26T07:26:49.520Z,23.80
2018-07-26T07:29:17.986Z,23.80
2018-07-26T07:31:46.242Z,24.00
2018-07-26T07:34:14.490Z,23.90
2018-07-26T07:36:42.722Z,24.00
2018-07-26T07:39:12.558Z,24.00
2018-07-26T07:41:41.003Z,24.00
2018-07-26T07:44:09.734Z,24.00
2018-07-26T07:46:38.497Z,24.10
2018-07-26T07:49:06.646Z,24.20
2018-07-26T07:51:34.928Z,24.20
2018-07-26T07:54:03.152Z,24.40
2018-07-26T07:56:31.425Z,24.40
2018-07-26T07:58:59.628Z,24.40
2018-07-26T08:01:27.917Z,24.60
2018-07-26T08:03:56.148Z,24.70
2018-07-26T08:06:24.424Z,24.80
2018-07-26T08:08:52.708Z,24.90
2018-07-26T08:11:20.954Z,24.80
2018-07-26T08:13:49.206Z,25.00
2018-07-26T08:16:17.484Z,25.10
2018-07-26T08:18:45.721Z,25.00
2018-07-26T08:21:13.952Z,25.10
2018-07-26T08:23:42.183Z,25.30
2018-07-26T08:26:10.453Z,25.30
2018-07-26T08:28:38.666Z,25.40
2018-07-26T08:33:34.910Z,25.60
2018-07-26T08:36:03.109Z,25.40
2018-07-26T08:38:34.350Z,25.60
2018-07-26T08:41:02.586Z,25.90
2018-07-26T08:43:30.839Z,25.90
2018-07-26T08:45:59.049Z,26.00
2018-07-26T08:48:27.243Z,25.90
2018-07-26T08:50:55.472Z,26.10
2018-07-26T08:53:23.698Z,26.10
2018-07-26T08:55:51.908Z,26.20
2018-07-26T08:58:20.114Z,26.30
2018-07-26T09:00:48.326Z,26.20
2018-07-26T09:03:16.548Z,27.00
2018-07-26T09:05:44.789Z,26.90
2018-07-26T09:08:13.017Z,26.80
2018-07-26T09:10:41.231Z,27.20
2018-07-26T09:13:09.450Z,27.40
2018-07-26T09:15:37.682Z,27.30
2018-07-26T09:18:11.589Z,27.30
2018-07-26T09:20:39.799Z,27.60
2018-07-26T09:23:08.052Z,27.80
2018-07-26T09:25:36.273Z,27.70
2018-07-26T09:28:04.484Z,27.80
2018-07-26T09:30:32.698Z,27.90
2018-07-26T09:33:00.960Z,27.80
2018-07-26T09:35:29.199Z,27.90
2018-07-26T09:37:57.419Z,28.00
2018-07-26T09:40:25.629Z,28.40
2018-07-26T09:42:54.240Z,28.30
2018-07-26T09:45:22.462Z,28.60
2018-07-26T09:47:50.669Z,28.60
2018-07-26T09:50:18.900Z,28.50
2018-07-26T09:52:47.103Z,28.60
2018-07-26T09:55:15.322Z,28.90
2018-07-26T09:57:43.540Z,29.00
2018-07-26T10:00:11.763Z,29.10
2018-07-26T10:02:39.960Z,29.50
2018-07-26T10:05:08.199Z,29.40
2018-07-26T10:07:36.432Z,29.20
2018-07-26T10:10:04.893Z,29.30
2018-07-26T10:12:33.097Z,29.50
2018-07-26T10:15:01.386Z,29.70
2018-07-26T10:17:29.590Z,29.90
2018-07-26T10:19:57.834Z,29.90
2018-07-26T10:22:26.071Z,30.10
2018-07-26T10:24:54.324Z,30.00
2018-07-26T10:27:22.556Z,30.20
2018-07-26T10:29:50.769Z,30.50
2018-07-26T10:32:18.999Z,30.50
2018-07-26T10:34:47.232Z,30.40
2018-07-26T10:37:15.451Z,30.70
2018-07-26T10:39:43.699Z,30.60
2018-07-26T10:42:11.912Z,30.80
2018-07-26T10:44:40.147Z,30.90
2018-07-26T10:47:08.367Z,30.90
2018-07-26T10:49:36.632Z,31.00
2018-07-26T10:52:04.825Z,30.90
2018-07-26T10:54:33.048Z,31.20
2018-07-26T10:57:01.286Z,31.40
2018-07-26T10:59:29.508Z,31.30
2018-07-26T11:01:57.779Z,31.30
2018-07-26T11:04:26.016Z,31.40
2018-07-26T11:06:54.229Z,31.20
2018-07-26T11:09:22.453Z,31.50
2018-07-26T11:11:50.659Z,31.50
2018-07-26T11:14:25.322Z,31.70
2018-07-26T11:16:53.564Z,31.60
2018-07-26T11:19:21.800Z,31.80
2018-07-26T11:21:50.061Z,32.00
2018-07-26T11:24:18.315Z,31.90
2018-07-26T11:26:46.545Z,32.20
2018-07-26T11:29:14.812Z,32.00
2018-07-26T11:31:43.080Z,32.00
2018-07-26T11:34:11.359Z,32.00
2018-07-26T11:36:39.616Z,32.40
2018-07-26T11:39:09.156Z,32.60
2018-07-26T11:41:37.713Z,32.60
2018-07-26T11:44:06.202Z,32.70
2018-07-26T11:46:34.459Z,32.70
2018-07-26T11:49:02.715Z,32.70
2018-07-26T11:51:30.905Z,32.70
2018-07-26T11:53:59.131Z,32.70
2018-07-26T11:56:27.461Z,32.70
2018-07-26T11:58:55.703Z,32.80
2018-07-26T12:01:23.939Z,33.00
2018-07-26T12:03:52.197Z,33.10
2018-07-26T12:06:20.434Z,33.20
2018-07-26T12:08:48.807Z,33.00
2018-07-26T12:11:17.048Z,33.00
2018-07-26T12:13:45.292Z,33.20
2018-07-26T12:16:13.571Z,33.30
2018-07-26T12:18:41.818Z,33.30
2018-07-26T12:21:10.062Z,33.50
2018-07-26T12:23:38.303Z,33.40
2018-07-26T12:26:06.570Z,33.30
2018-07-26T12:28:34.772Z,33.40
2018-07-26T12:31:03.064Z,33.40
2018-07-26T12:33:31.340Z,33.60
2018-07-26T12:35:59.648Z,33.60
2018-07-26T12:38:27.879Z,33.60
2018-07-26T12:40:56.303Z,33.80
2018-07-26T12:43:24.548Z,33.70
2018-07-26T12:45:52.817Z,33.20
2018-07-26T12:48:21.029Z,33.60
2018-07-26T12:50:49.259Z,33.50
2018-07-26T12:55:52.155Z,33.60
2018-07-26T12:58:20.383Z,33.50
2018-07-26T13:00:48.656Z,33.40
2018-07-26T13:03:16.872Z,33.50
2018-07-26T13:05:45.087Z,33.30
2018-07-26T13:08:13.348Z,33.60
2018-07-26T13:10:41.570Z,33.80
2018-07-26T13:13:09.827Z,33.80
2018-07-26T13:15:38.070Z,33.80
2018-07-26T13:18:06.279Z,33.80
2018-07-26T13:20:34.494Z,34.00
2018-07-26T13:23:02.738Z,33.90
2018-07-26T13:25:31.070Z,34.10
2018-07-26T13:28:00.121Z,33.90
2018-07-26T13:30:28.403Z,34.10
2018-07-26T13:32:56.705Z,34.10
2018-07-26T13:35:24.937Z,34.00
2018-07-26T13:37:53.198Z,34.20
2018-07-26T13:40:21.455Z,34.00
2018-07-26T13:42:49.739Z,34.40
2018-07-26T13:45:17.940Z,34.50
2018-07-26T13:47:46.158Z,34.50
2018-07-26T13:50:14.391Z,34.40
2018-07-26T13:52:42.631Z,34.40
2018-07-26T13:55:10.855Z,34.60
2018-07-26T13:57:39.083Z,34.50
2018-07-26T14:00:07.341Z,34.60
2018-07-26T14:02:35.616Z,34.40
2018-07-26T14:05:03.863Z,34.20
2018-07-26T14:07:32.154Z,34.10
2018-07-26T14:10:00.437Z,34.40
2018-07-26T14:12:28.704Z,34.40
2018-07-26T14:14:56.906Z,34.50
2018-07-26T14:17:25.151Z,34.70
2018-07-26T14:19:53.377Z,34.50
2018-07-26T14:22:21.711Z,34.40
2018-07-26T14:24:49.875Z,34.40
2018-07-26T14:27:18.218Z,34.70
2018-07-26T14:29:46.407Z,35.20
2018-07-26T14:32:14.636Z,35.10
2018-07-26T14:34:42.893Z,34.70
2018-07-26T14:37:11.168Z,34.50
2018-07-26T14:39:39.413Z,34.50
2018-07-26T14:42:07.711Z,34.50
2018-07-26T14:44:35.927Z,34.50
2018-07-26T14:47:04.210Z,34.60
2018-07-26T14:49:32.472Z,34.80
2018-07-26T14:52:00.726Z,34.90
2018-07-26T14:54:29.062Z,34.90
2018-07-26T14:56:57.232Z,35.00
2018-07-26T14:59:25.511Z,34.80
2018-07-26T15:01:54.105Z,34.90
2018-07-26T15:04:22.315Z,34.90
2018-07-26T15:06:50.527Z,34.70
2018-07-26T15:09:18.754Z,34.80
2018-07-26T15:11:47.208Z,34.60
2018-07-26T15:14:15.494Z,34.80
2018-07-26T15:16:43.692Z,34.80
2018-07-26T15:19:11.914Z,34.60
2018-07-26T15:21:40.131Z,34.60
2018-07-26T15:24:08.473Z,34.40
2018-07-26T15:26:36.909Z,34.70
2018-07-26T15:29:05.361Z,34.90
2018-07-26T15:31:33.604Z,35.20
2018-07-26T15:34:01.843Z,35.10
2018-07-26T15:38:58.054Z,35.00
2018-07-26T15:41:26.352Z,35.00
2018-07-26T15:43:54.580Z,34.80
2018-07-26T15:46:22.818Z,34.70
2018-07-26T15:48:51.061Z,35.00
2018-07-26T15:51:19.424Z,34.70
2018-07-26T15:53:47.659Z,35.00
2018-07-26T15:56:15.871Z,34.70
2018-07-26T15:58:44.134Z,34.80
2018-07-26T16:01:12.372Z,34.60
2018-07-26T16:03:40.583Z,34.90
2018-07-26T16:06:08.865Z,34.50
2018-07-26T16:08:37.107Z,34.60
2018-07-26T16:11:05.363Z,34.60
2018-07-26T16:13:33.645Z,34.50
2018-07-26T16:16:01.914Z,34.50
2018-07-26T16:18:30.156Z,34.50
2018-07-26T16:20:58.378Z,34.40
2018-07-26T16:23:26.584Z,34.30
2018-07-26T16:25:54.831Z,34.20
2018-07-26T16:28:23.092Z,34.40
2018-07-26T16:30:51.609Z,34.20
2018-07-26T16:33:19.854Z,34.50
2018-07-26T16:35:48.096Z,34.60
2018-07-26T16:38:16.314Z,34.40
2018-07-26T16:40:44.565Z,34.40
2018-07-26T16:43:12.794Z,34.20
2018-07-26T16:45:41.000Z,34.60
2018-07-26T16:48:09.250Z,34.20
2018-07-26T16:50:37.498Z,34.20
2018-07-26T16:53:05.718Z,34.30
2018-07-26T16:55:33.979Z,34.20
2018-07-26T16:58:02.222Z,34.00
2018-07-26T17:00:30.512Z,33.80
2018-07-26T17:02:58.854Z,33.60
2018-07-26T17:05:27.126Z,33.60
2018-07-26T17:07:55.398Z,33.90
2018-07-26T17:10:23.656Z,33.90
2018-07-26T17:12:51.911Z,33.70
2018-07-26T17:15:20.143Z,33.60
2018-07-26T17:17:48.377Z,33.80
2018-07-26T17:20:16.647Z,33.60
2018-07-26T17:22:44.901Z,33.40
2018-07-26T17:25:13.238Z,33.10
2018-07-26T17:27:41.444Z,33.10
2018-07-26T17:30:10.280Z,33.30
2018-07-26T17:32:38.534Z,33.20
2018-07-26T17:35:06.813Z,33.10
2018-07-26T17:37:35.050Z,33.10
2018-07-26T17:40:03.334Z,33.10
2018-07-26T17:42:31.616Z,32.90
2018-07-26T17:44:59.924Z,32.90
2018-07-26T17:47:28.114Z,32.70
2018-07-26T17:49:56.332Z,32.70
2018-07-26T17:52:24.559Z,32.70
2018-07-26T17:54:52.807Z,32.60
2018-07-26T17:57:21.050Z,32.50
2018-07-26T17:59:49.322Z,32.40
2018-07-26T18:02:17.593Z,32.30
2018-07-26T18:04:45.809Z,32.10
2018-07-26T18:07:14.035Z,32.00
2018-07-26T18:09:42.278Z,32.00
2018-07-26T18:12:10.764Z,31.90
2018-07-26T18:14:38.986Z,31.90
2018-07-26T18:17:07.239Z,31.70
2018-07-26T18:19:35.488Z,31.70
2018-07-26T18:22:03.722Z,31.70
2018-07-26T18:24:31.932Z,31.40
2018-07-26T18:27:00.238Z,31.50
2018-07-26T18:29:28.497Z,31.40
2018-07-26T18:31:56.714Z,31.20
2018-07-26T18:34:24.961Z,31.00
2018-07-26T18:36:53.215Z,30.90
2018-07-26T18:39:21.435Z,31.00
2018-07-26T18:41:49.664Z,30.90
2018-07-26T18:44:17.900Z,30.70
2018-07-26T18:46:46.110Z,30.60
2018-07-26T18:49:14.327Z,30.60
2018-07-26T18:51:42.510Z,30.50
2018-07-26T18:54:10.732Z,30.50
2018-07-26T18:56:38.944Z,30.40
2018-07-26T18:59:07.151Z,30.20
2018-07-26T19:01:35.365Z,30.10
2018-07-26T19:04:03.644Z,30.00
2018-07-26T19:06:31.895Z,29.90
2018-07-26T19:09:00.144Z,29.80
2018-07-26T19:11:28.450Z,29.70
2018-07-26T19:13:56.699Z,29.70
2018-07-26T19:18:52.906Z,29.50
2018-07-26T19:21:21.200Z,29.40
2018-07-26T19:23:49.450Z,29.30
2018-07-26T19:26:17.644Z,29.20
2018-07-26T19:28:45.882Z,29.20
2018-07-26T19:31:14.095Z,29.20
2018-07-26T19:33:42.364Z,29.10
2018-07-26T19:36:10.669Z,29.00
2018-07-26T19:38:38.874Z,29.10
2018-07-26T19:41:07.149Z,29.00
2018-07-26T19:43:35.367Z,28.90
2018-07-26T19:46:03.603Z,28.80
2018-07-26T19:48:31.870Z,28.70
2018-07-26T19:51:00.152Z,28.70
2018-07-26T19:53:28.387Z,28.60
2018-07-26T19:55:56.649Z,28.50
2018-07-26T19:58:24.876Z,28.50
2018-07-26T20:00:53.102Z,28.40
2018-07-26T20:03:21.328Z,28.40
2018-07-26T20:05:49.542Z,28.30
2018-07-26T20:08:17.772Z,28.30
2018-07-26T20:10:45.988Z,28.10
2018-07-26T20:13:14.234Z,28.00
2018-07-26T20:15:42.461Z,28.10
2018-07-26T20:18:10.691Z,28.10
2018-07-26T20:20:38.911Z,28.10
2018-07-26T20:23:07.126Z,27.80
2018-07-26T20:25:39.576Z,27.80
2018-07-26T20:28:07.909Z,27.80
2018-07-26T20:30:36.062Z,27.80
2018-07-26T20:33:04.306Z,27.70
2018-07-26T20:35:32.493Z,27.50
2018-07-26T20:38:00.809Z,27.40
2018-07-26T20:40:29.052Z,27.40
2018-07-26T20:42:57.289Z,27.30
2018-07-26T20:45:25.494Z,27.30
2018-07-26T20:47:53.708Z,27.20
2018-07-26T20:50:21.957Z,27.10
2018-07-26T20:52:50.149Z,27.10
2018-07-26T20:55:18.367Z,27.00
2018-07-26T20:57:46.561Z,27.10
2018-07-26T21:00:14.923Z,26.90
2018-07-26T21:05:11.638Z,26.70
2018-07-26T21:07:39.862Z,26.60
2018-07-26T21:10:08.887Z,26.60
2018-07-26T21:12:37.184Z,26.50
2018-07-26T21:15:06.298Z,26.30
2018-07-26T21:17:34.540Z,26.30
2018-07-26T21:20:02.787Z,26.20
2018-07-26T21:22:31.059Z,26.20
2018-07-26T21:24:59.290Z,26.20
2018-07-26T21:27:27.537Z,26.10
2018-07-26T21:29:55.794Z,26.00
2018-07-26T21:32:24.009Z,25.90
2018-07-26T21:34:52.331Z,25.90
2018-07-26T21:37:20.863Z,26.00
2018-07-26T21:39:49.094Z,25.90
2018-07-26T21:42:17.313Z,26.00
2018-07-26T21:44:45.536Z,25.90
2018-07-26T21:47:13.768Z,25.90
2018-07-26T21:49:41.991Z,26.00
2018-07-26T21:52:10.198Z,25.80
2018-07-26T21:54:38.448Z,25.90
2018-07-26T21:57:06.673Z,25.70
2018-07-26T21:59:34.898Z,25.60
2018-07-26T22:02:03.151Z,25.70
2018-07-26T22:04:31.413Z,25.60
2018-07-26T22:06:59.674Z,25.60
2018-07-26T22:09:27.907Z,25.50
2018-07-26T22:11:56.173Z,25.60
2018-07-26T22:14:24.425Z,25.40
2018-07-26T22:16:52.613Z,25.40
2018-07-26T22:19:20.839Z,25.30
2018-07-26T22:21:49.044Z,25.20
2018-07-26T22:24:17.259Z,25.10
2018-07-26T22:26:45.517Z,25.10
2018-07-26T22:29:13.745Z,25.00
2018-07-26T22:31:41.995Z,24.90
2018-07-26T22:34:10.255Z,24.80
2018-07-26T22:36:38.463Z,24.90
2018-07-26T22:39:08.178Z,24.90
2018-07-26T22:41:36.392Z,24.70
2018-07-26T22:44:04.691Z,24.40
2018-07-26T22:46:32.942Z,24.20
2018-07-26T22:49:01.275Z,24.00
2018-07-26T22:51:29.555Z,24.00
2018-07-26T22:53:57.765Z,23.90
2018-07-26T22:56:26.007Z,23.80
2018-07-26T22:58:54.231Z,23.80
2018-07-26T23:01:22.504Z,23.60
2018-07-26T23:03:50.780Z,23.50
2018-07-26T23:06:18.975Z,23.50
2018-07-26T23:08:47.205Z,23.50
2018-07-26T23:11:15.407Z,23.30
2018-07-26T23:13:43.681Z,23.30
2018-07-26T23:16:11.914Z,23.30
2018-07-26T23:18:40.139Z,23.30
2018-07-26T23:21:08.345Z,23.10
2018-07-26T23:23:36.625Z,23.00
2018-07-26T23:26:04.858Z,23.00
2018-07-26T23:28:33.098Z,23.30
2018-07-26T23:31:01.347Z,23.30
2018-07-26T23:33:29.699Z,23.10
2018-07-26T23:38:25.853Z,23.00
2018-07-26T23:40:54.062Z,22.80
2018-07-26T23:43:22.283Z,22.60
2018-07-26T23:45:50.521Z,22.70
2018-07-26T23:48:18.812Z,23.00
2018-07-26T23:50:47.045Z,23.20
2018-07-26T23:53:15.275Z,23.20
2018-07-26T23:55:43.518Z,22.60
2018-07-26T23:58:11.739Z,22.80
